Little Lake, California
Current Conditions -  °F | °C
As of 9:56 AM on Tuesday 21 Oct 2014 (Local Time) from KNID Reporting Station
Few Clouds Few Clouds  
Wind Chill: 66°   Ceiling: Unl
Heat Index: 66°   Visibility: 10mi
Dew Point: 38°   Wind: 6mph
Humidity: 36%   Direction: 250°WSW
Pressure: 29.93"   Gusts: NA
Location:  35.94°N, 117.91°W
Report Text: KNID 211656Z 25005KT 10SM FEW270 19/03 A2993 RMK AO2 SLP124 T01890033 $
Loading
Personal Weather Stations






























Interactive Weather Map
Tropical Storm Tracking
New forecast layout! Learn more

10-Day Weather Forecast

Advertisements
Track Severe Weather on mobile